Time;durP1;ratioP1;P1;durP2;ratioP2;P2;SDS_P1;SDS_P2;PMS_P1;PMS_P2;Temp;Humidity;BMP_temperature;BMP_pressure;BME280_temperature;BME280_humidity;BME280_pressure;Samples;Min_cycle;Max_cycle;Signal;HPM_P1;HPM_P2
2022/08/13 00:02:20;;;;;;;;;;;21.90;99.90;;;;;;12331495;28;20117;-34
2022/08/13 00:08:27;;;;;;;1.67;0.90;;;21.80;99.90;;;;;;12323001;28;20005;-34
2022/08/13 00:14:32;;;;;;;1.48;0.90;;;21.90;99.90;;;;;;12331563;28;20055;-38
2022/08/13 00:20:44;;;;;;;2.67;0.90;;;21.90;99.90;;;;;;12333793;28;20055;-38
2022/08/13 00:26:59;;;;;;;4.03;0.95;;;21.80;99.90;;;;;;12326312;28;20082;-34
2022/08/13 00:33:05;;;;;;;2.28;0.65;;;21.70;99.90;;;;;;12339171;28;20050;-37
2022/08/13 00:39:09;;;;;;;2.80;0.90;;;21.60;99.90;;;;;;12332630;28;20089;-37
2022/08/13 00:45:11;;;;;;;4.63;0.90;;;21.60;99.90;;;;;;12336648;28;20081;-34
2022/08/13 00:51:19;;;;;;;4.78;1.10;;;21.40;99.90;;;;;;12324547;28;20066;-37
2022/08/13 00:57:43;;;;;;;2.33;1.05;;;21.20;99.90;;;;;;12334708;28;20431;-34
2022/08/13 01:03:54;;;;;;;4.13;1.05;;;20.90;99.90;;;;;;12330650;28;20053;-34
2022/08/13 01:10:15;;;;;;;1.60;0.80;;;20.90;99.90;;;;;;12329928;28;20142;-34
2022/08/13 01:16:21;;;;;;;3.25;0.98;;;20.70;99.90;;;;;;12326677;28;20512;-38
2022/08/13 01:22:26;;;;;;;1.90;1.00;;;20.60;99.90;;;;;;12327847;28;20047;-38
2022/08/13 01:28:38;;;;;;;1.48;0.80;;;20.50;99.90;;;;;;12314663;28;20392;-34
2022/08/13 01:34:45;;;;;;;2.65;0.80;;;20.40;99.90;;;;;;12336515;28;20040;-34
2022/08/13 01:40:52;;;;;;;5.72;1.75;;;20.40;99.90;;;;;;12339408;28;20167;-34
2022/08/13 01:53:18;;;;;;;4.63;1.00;;;20.40;99.90;;;;;;12338189;28;20091;-34
2022/08/13 01:59:23;;;;;;;2.22;1.00;;;20.50;99.90;;;;;;12336179;28;20059;-38
2022/08/13 02:05:26;;;;;;;2.10;0.70;;;20.60;99.90;;;;;;12346980;28;20047;-34
2022/08/13 02:11:48;;;;;;;2.05;0.90;;;20.60;99.90;;;;;;12352750;28;20055;-38
2022/08/13 02:17:49;;;;;;;1.75;0.90;;;20.70;99.90;;;;;;12325060;28;20105;-34
2022/08/13 02:24:13;;;;;;;1.73;1.00;;;20.60;99.90;;;;;;12335488;28;20086;-38
2022/08/13 02:30:17;;;;;;;2.50;1.20;;;20.30;99.90;;;;;;12330786;28;20641;-39
2022/08/13 02:36:22;;;;;;;1.98;1.10;;;20.40;99.90;;;;;;12336309;28;20407;-38
2022/08/13 02:42:32;;;;;;;2.75;1.10;;;20.20;99.90;;;;;;12321608;28;20057;-38
2022/08/13 02:48:37;;;;;;;1.13;0.70;;;20.20;99.90;;;;;;12351362;28;20506;-34
2022/08/13 02:54:45;;;;;;;3.03;1.00;;;20.10;99.90;;;;;;12341701;28;20082;-38
2022/08/13 03:00:58;;;;;;;2.95;0.90;;;20.20;99.90;;;;;;12343652;28;20046;-38
2022/08/13 03:07:00;;;;;;;;;;;20.30;99.90;;;;;;12338141;28;20062;-38
2022/08/13 03:13:33;;;;;;;2.80;1.05;;;20.20;99.90;;;;;;12328525;28;19922;-34
2022/08/13 03:19:46;;;;;;;1.90;0.93;;;20.20;99.90;;;;;;12338528;28;20070;-38
2022/08/13 03:25:51;;;;;;;5.65;1.20;;;20.10;99.90;;;;;;12332057;28;20415;-34
2022/08/13 03:31:53;;;;;;;1.63;0.95;;;20.00;99.90;;;;;;12341574;28;20050;-34
2022/08/13 03:37:56;;;;;;;2.28;1.10;;;19.80;99.90;;;;;;12338516;28;20055;-34
2022/08/13 03:44:02;;;;;;;2.85;1.00;;;19.80;99.90;;;;;;12325939;28;20051;-34
2022/08/13 03:50:13;;;;;;;1.75;1.08;;;19.70;99.90;;;;;;12332109;28;20138;-34
2022/08/13 03:56:18;;;;;;;5.53;1.45;;;19.70;99.90;;;;;;12322916;28;20498;-38
2022/08/13 04:02:20;;;;;;;3.22;1.10;;;19.60;99.90;;;;;;12327030;28;20054;-34
2022/08/13 04:08:21;;;;;;;4.93;1.25;;;19.60;99.90;;;;;;12330246;28;20102;-37
2022/08/13 04:14:24;;;;;;;2.55;1.10;;;19.40;99.90;;;;;;12333090;28;20138;-39
2022/08/13 04:20:54;;;;;;;2.38;1.00;;;19.40;99.90;;;;;;12340550;28;20059;-38
2022/08/13 04:27:04;;;;;;;2.97;1.05;;;19.30;99.90;;;;;;12329831;28;20094;-38
2022/08/13 04:33:14;;;;;;;2.72;1.00;;;19.30;99.90;;;;;;12331705;28;20066;-34
2022/08/13 04:39:37;;;;;;;2.13;1.00;;;19.30;99.90;;;;;;12335209;28;20061;-34
2022/08/13 04:45:59;;;;;;;2.45;1.10;;;19.30;99.90;;;;;;12334248;28;20043;-38
2022/08/13 04:52:01;;;;;;;2.67;1.23;;;19.30;99.90;;;;;;12339864;28;20050;-38
2022/08/13 04:58:04;;;;;;;2.33;1.08;;;19.20;99.90;;;;;;12330281;28;20051;-34
2022/08/13 05:10:25;;;;;;;2.42;1.20;;;19.20;99.90;;;;;;12284781;28;20086;-34
2022/08/13 05:16:31;;;;;;;1.77;1.10;;;19.10;99.90;;;;;;12297025;28;20082;-39
2022/08/13 05:22:34;;;;;;;3.30;1.23;;;18.90;99.90;;;;;;12301648;28;20102;-39
2022/08/13 05:28:37;;;;;;;2.28;1.33;;;18.70;99.90;;;;;;12273752;28;20062;-34
2022/08/13 05:34:44;;;;;;;5.47;1.77;;;18.70;99.90;;;;;;12292579;29;20109;-38
2022/08/13 05:40:54;;;;;;;3.45;1.40;;;18.60;99.90;;;;;;12298822;28;20090;-38
2022/08/13 05:46:57;;;;;;;3.75;1.45;;;18.70;99.90;;;;;;12298156;28;20086;-39
2022/08/13 05:53:17;;;;;;;3.63;1.60;;;18.70;99.90;;;;;;12295783;28;20055;-37
2022/08/13 06:05:49;;;;;;;4.00;1.20;;;19.10;99.90;;;;;;12294440;28;20563;-34
2022/08/13 06:11:52;;;;;;;3.45;1.30;;;19.30;99.90;;;;;;12300343;28;20055;-39
2022/08/13 06:18:15;;;;;;;2.83;1.25;;;19.40;99.90;;;;;;12284571;28;20090;-34
2022/08/13 06:24:38;;;;;;;4.20;1.35;;;19.60;99.90;;;;;;12298567;28;20055;-38
2022/08/13 06:30:58;;;;;;;3.22;1.50;;;19.70;99.90;;;;;;12298483;28;20058;-39
2022/08/13 06:37:03;;;;;;;4.05;1.33;;;19.80;99.90;;;;;;12286765;28;20052;-34
2022/08/13 06:43:06;;;;;;;7.50;1.55;;;20.00;99.90;;;;;;12296117;28;20074;-38
2022/08/13 06:49:11;;;;;;;4.63;1.50;;;20.00;99.90;;;;;;12295678;28;20055;-34
2022/08/13 06:55:18;;;;;;;3.53;1.50;;;20.20;99.90;;;;;;12297711;28;20151;-34
2022/08/13 07:01:41;;;;;;;4.95;1.40;;;20.30;99.90;;;;;;12295262;28;20043;-34
2022/08/13 07:08:06;;;;;;;3.53;1.20;;;20.40;99.90;;;;;;12300203;28;20047;-34
2022/08/13 07:14:15;;;;;;;1.95;1.05;;;20.50;99.90;;;;;;12299102;28;20146;-34
2022/08/13 07:20:17;;;;;;;8.02;1.38;;;20.70;99.90;;;;;;12297326;28;20058;-38
2022/08/13 07:26:30;;;;;;;2.78;1.33;;;20.90;99.90;;;;;;12298099;28;20058;-34
2022/08/13 07:32:41;;;;;;;3.67;1.27;;;21.10;99.90;;;;;;12299484;28;20150;-34
2022/08/13 07:38:47;;;;;;;2.50;1.10;;;21.30;99.90;;;;;;12296254;28;20604;-38
2022/08/13 07:44:52;;;;;;;3.65;1.15;;;21.60;99.90;;;;;;12296174;28;20055;-38
2022/08/13 07:51:19;;;;;;;5.55;1.10;;;21.80;99.90;;;;;;12293584;28;20055;-34
2022/08/13 07:57:25;;;;;;;1.90;1.05;;;22.00;99.90;;;;;;12296363;28;20054;-34
2022/08/13 08:03:39;;;;;;;5.32;1.10;;;22.20;99.90;;;;;;12295577;28;20051;-38
2022/08/13 08:09:54;;;;;;;2.60;1.30;;;22.40;99.90;;;;;;12294318;28;20101;-38
2022/08/13 08:16:02;;;;;;;2.90;1.27;;;22.80;99.90;;;;;;12295295;28;20043;-37
2022/08/13 08:22:11;;;;;;;6.43;1.20;;;23.40;99.90;;;;;;12290942;28;20058;-34
2022/08/13 08:28:30;;;;;;;3.50;1.50;;;24.10;99.90;;;;;;12295932;28;20198;-34
2022/08/13 08:34:39;;;;;;;2.78;1.27;;;24.10;99.90;;;;;;12290426;28;20117;-34
2022/08/13 08:47:07;;;;;;;7.65;1.50;;;24.20;99.90;;;;;;12295297;28;20114;-38
2022/08/13 08:53:20;;;;;;;4.22;1.63;;;25.00;99.90;;;;;;12293307;28;20051;-38
2022/08/13 08:59:43;;;;;;;10.80;1.70;;;25.40;99.90;;;;;;12292914;28;20051;-34
2022/08/13 09:05:55;;;;;;;7.00;1.58;;;25.50;99.90;;;;;;12291809;28;20098;-35
2022/08/13 09:12:15;;;;;;;5.82;1.83;;;25.50;99.90;;;;;;12294039;28;20056;-34
2022/08/13 09:18:18;;;;;;;3.73;1.73;;;25.80;99.90;;;;;;12295512;28;20396;-34
2022/08/13 09:24:24;;;;;;;3.28;1.73;;;26.10;99.90;;;;;;12290770;28;20074;-34
2022/08/13 09:30:26;;;;;;;3.30;1.90;;;26.30;99.90;;;;;;12293250;28;20051;-40
2022/08/13 09:36:31;;;;;;;3.70;1.55;;;26.60;99.90;;;;;;12292731;28;20055;-35
2022/08/13 09:42:44;;;;;;;5.47;2.00;;;26.70;99.90;;;;;;12291181;28;20055;-34
2022/08/13 09:48:51;;;;;;;7.68;2.83;;;26.90;99.90;;;;;;12290941;28;20051;-35
2022/08/13 09:54:57;;;;;;;3.40;2.17;;;27.10;99.90;;;;;;12273931;28;20055;-39
2022/08/13 10:00:59;;;;;;;4.28;2.38;;;27.30;99.90;;;;;;12297312;28;20047;-34
2022/08/13 10:07:03;;;;;;;;;;;27.30;99.90;;;;;;12298368;28;20093;-38
2022/08/13 10:13:20;;;;;;;5.13;2.22;;;26.80;99.90;;;;;;12296550;28;19933;-38
2022/08/13 10:19:42;;;;;;;5.60;2.30;;;26.60;99.90;;;;;;12297040;28;20683;-35
2022/08/13 10:25:52;;;;;;;9.90;2.53;;;27.00;99.90;;;;;;12284618;28;20172;-34
2022/08/13 10:32:06;;;;;;;3.53;2.40;;;27.20;99.90;;;;;;12298405;28;20078;-38
2022/08/13 10:38:18;;;;;;;4.55;2.40;;;27.50;99.90;;;;;;12298689;28;20047;-39
2022/08/13 10:44:20;;;;;;;6.72;2.88;;;27.70;99.90;;;;;;12297679;28;20071;-40
2022/08/13 10:50:32;;;;;;;6.43;3.30;;;27.90;99.90;;;;;;12295577;28;20074;-34
2022/08/13 10:56:34;;;;;;;6.50;3.88;;;28.20;99.90;;;;;;12297914;28;20187;-39
2022/08/13 11:02:37;;;;;;;5.65;3.83;;;28.40;99.90;;;;;;12297164;28;20058;-35
2022/08/13 11:08:41;;;;;;;5.93;3.15;;;28.70;99.90;;;;;;12295116;28;20503;-36
2022/08/13 11:21:10;;;;;;;5.40;3.40;;;28.70;99.90;;;;;;4503635;23;20042;-84
2022/08/13 11:27:34;;;;;;;4.80;3.22;;;28.70;99.90;;;;;;12419892;28;20046;-85
2022/08/13 11:33:52;;;;;;;8.25;3.45;;;29.20;99.90;;;;;;12414442;28;20053;-84
2022/08/13 11:40:08;;;;;;;6.00;3.10;;;28.90;99.90;;;;;;12421897;28;20062;-85
2022/08/13 11:46:30;;;;;;;;;;;28.80;99.90;;;;;;12417757;28;20425;-84
2022/08/13 11:52:32;;;;;;;6.40;3.20;;;29.00;99.90;;;;;;12412030;28;19991;-85
2022/08/13 11:58:34;;;;;;;5.10;3.40;;;28.90;99.90;;;;;;12410378;28;20481;-85
2022/08/13 12:04:55;;;;;;;5.30;2.90;;;29.10;99.90;;;;;;12411752;28;20076;-84
2022/08/13 12:10:58;;;;;;;5.38;3.45;;;28.80;99.90;;;;;;12414579;28;20141;-84
2022/08/13 12:16:59;;;;;;;5.53;3.28;;;29.00;99.90;;;;;;12424690;28;20033;-85
2022/08/13 12:23:03;;;;;;;6.45;3.10;;;29.30;99.90;;;;;;12418627;28;20054;-84
2022/08/13 12:29:04;;;;;;;8.75;3.05;;;29.40;99.90;;;;;;12416133;28;20482;-85
2022/08/13 12:35:07;;;;;;;5.25;2.72;;;29.60;99.90;;;;;;12411421;28;20096;-85
2022/08/13 12:41:17;;;;;;;5.70;2.75;;;29.10;99.90;;;;;;12416813;28;20057;-85
2022/08/13 12:47:35;;;;;;;4.38;2.47;;;29.00;99.90;;;;;;12419607;28;20132;-85
2022/08/13 12:53:36;;;;;;;6.15;3.20;;;29.20;99.90;;;;;;12411734;28;20457;-85
2022/08/13 12:59:56;;;;;;;3.67;2.88;;;29.60;99.90;;;;;;12422428;28;20054;-85
2022/08/13 13:06:04;;;;;;;4.60;3.00;;;29.50;99.90;;;;;;12417898;28;20104;-85
2022/08/13 13:12:08;;;;;;;5.05;3.10;;;29.50;99.90;;;;;;12429948;28;20046;-85
2022/08/13 13:18:10;;;;;;;;;;;29.60;99.90;;;;;;12429834;28;20076;-85
2022/08/13 13:24:33;;;;;;;7.47;3.40;;;29.80;99.90;;;;;;12422787;28;20300;-86
2022/08/13 13:30:55;;;;;;;6.45;3.35;;;29.10;99.90;;;;;;12417681;28;20049;-84
2022/08/13 13:37:16;;;;;;;5.45;3.28;;;28.60;99.90;;;;;;12422077;28;20050;-85
2022/08/13 13:43:24;;;;;;;5.55;3.05;;;29.30;99.90;;;;;;12447827;28;20068;-86
2022/08/13 13:49:27;;;;;;;4.65;3.08;;;29.50;99.90;;;;;;12418942;28;20045;-85
2022/08/13 13:55:33;;;;;;;7.22;3.00;;;29.20;99.90;;;;;;12421015;28;20049;-85
2022/08/13 14:01:41;;;;;;;8.60;3.20;;;29.10;99.90;;;;;;12409607;28;20058;-85
2022/08/13 14:07:54;;;;;;;;;;;29.00;99.90;;;;;;12415823;28;20057;-86
2022/08/13 14:13:56;;;;;;;6.38;3.00;;;29.20;99.90;;;;;;12411444;28;20273;-86
2022/08/13 14:19:59;;;;;;;7.00;3.10;;;29.30;99.90;;;;;;12414540;28;20409;-85
2022/08/13 14:26:04;;;;;;;4.30;3.05;;;29.70;99.90;;;;;;12415795;28;20062;-86
2022/08/13 14:32:10;;;;;;;4.28;3.22;;;29.60;99.90;;;;;;12429427;28;20064;-85
2022/08/13 14:38:13;;;;;;;12.15;3.17;;;29.90;99.90;;;;;;12445200;28;20093;-84
2022/08/13 14:44:20;;;;;;;6.22;2.80;;;29.90;99.90;;;;;;12419870;28;20517;-85
2022/08/13 14:50:45;;;;;;;4.82;2.70;;;29.70;99.90;;;;;;12416067;28;20049;-86
2022/08/13 14:56:48;;;;;;;3.85;2.83;;;30.00;99.90;;;;;;12400497;28;20398;-86
2022/08/13 15:02:51;;;;;;;3.85;3.05;;;30.20;99.90;;;;;;12410234;28;20050;-85
2022/08/13 15:09:13;;;;;;;3.83;2.97;;;30.20;99.90;;;;;;12412940;28;20425;-86
2022/08/13 15:15:18;;;;;;;6.47;3.10;;;29.90;99.90;;;;;;12426454;28;20041;-86
2022/08/13 15:21:25;;;;;;;6.03;3.10;;;29.80;99.90;;;;;;12412847;28;20486;-86
2022/08/13 15:27:52;;;;;;;4.47;3.20;;;30.00;99.90;;;;;;12407115;28;20050;-85
2022/08/13 15:33:54;;;;;;;5.45;3.30;;;29.70;99.90;;;;;;12411923;28;20451;-85
2022/08/13 15:39:56;;;;;;;4.75;3.50;;;29.60;99.90;;;;;;12412095;28;20085;-85
2022/08/13 15:45:58;;;;;;;7.60;3.55;;;29.50;99.90;;;;;;12419523;28;20137;-85
2022/08/13 15:52:00;;;;;;;4.38;3.28;;;29.50;99.90;;;;;;12421236;28;20053;-84
2022/08/13 15:58:06;;;;;;;4.25;2.90;;;29.80;99.90;;;;;;12405365;28;20070;-85
2022/08/13 16:04:14;;;;;;;4.45;3.05;;;29.60;99.90;;;;;;12416863;28;20086;-85
2022/08/13 16:10:18;;;;;;;4.55;3.55;;;29.90;99.90;;;;;;12403916;28;20216;-85
2022/08/13 16:16:23;;;;;;;5.03;4.00;;;29.90;99.90;;;;;;12418246;28;20426;-86
2022/08/13 16:22:26;;;;;;;5.63;4.13;;;29.90;99.90;;;;;;12410110;28;20057;-85
2022/08/13 16:28:31;;;;;;;4.97;3.95;;;29.80;99.90;;;;;;12410485;28;20058;-85
2022/08/13 16:34:39;;;;;;;5.30;4.25;;;29.20;99.90;;;;;;12409167;28;20081;-85
2022/08/13 16:40:51;;;;;;;8.43;4.13;;;28.60;99.90;;;;;;12412308;28;20417;-85
2022/08/13 16:46:53;;;;;;;7.00;4.80;;;28.70;99.90;;;;;;12404865;28;20046;-84
2022/08/13 16:53:00;;;;;;;7.35;3.97;;;28.70;99.90;;;;;;12401696;28;20045;-85
2022/08/13 16:59:02;;;;;;;6.90;4.47;;;28.60;99.90;;;;;;12402860;28;20151;-84
2022/08/13 17:11:36;;;;;;;5.72;4.43;;;28.40;99.90;;;;;;12439431;28;20289;-84
2022/08/13 17:17:41;;;;;;;8.52;4.82;;;28.20;99.90;;;;;;12420737;28;20580;-85
2022/08/13 17:23:43;;;;;;;4.38;3.67;;;28.10;99.90;;;;;;12424604;28;20057;-83
2022/08/13 17:30:04;;;;;;;6.60;4.10;;;28.00;99.90;;;;;;12427912;28;20490;-85
2022/08/13 17:36:11;;;;;;;5.10;3.97;;;27.80;99.90;;;;;;12426760;28;20115;-84
2022/08/13 17:42:13;;;;;;;6.10;4.00;;;27.80;99.90;;;;;;12415548;28;20208;-85
2022/08/13 17:48:40;;;;;;;5.22;4.10;;;27.70;99.90;;;;;;12424108;28;20053;-85
2022/08/13 17:55:02;;;;;;;7.50;4.22;;;27.50;99.90;;;;;;12423828;28;20038;-84
2022/08/13 18:01:11;;;;;;;6.45;4.32;;;27.50;99.90;;;;;;12424047;28;20417;-85
2022/08/13 18:07:24;;;;;;;6.38;4.50;;;27.40;99.90;;;;;;12432181;28;20046;-85
2022/08/13 18:13:32;;;;;;;5.45;4.07;;;27.10;99.90;;;;;;12423987;28;20108;-84
2022/08/13 18:20:12;;;;;;;5.72;4.22;;;27.00;99.90;;;;;;12403494;28;20124;-85
2022/08/13 18:26:15;;;;;;;6.57;4.32;;;26.80;99.90;;;;;;12423065;28;20069;-84
2022/08/13 18:32:18;;;;;;;;;;;26.70;99.90;;;;;;12422529;28;20062;-84
2022/08/13 18:38:27;;;;;;;7.63;5.18;;;26.50;99.90;;;;;;12436435;28;19928;-85
2022/08/13 18:44:35;;;;;;;6.80;4.45;;;26.40;99.90;;;;;;12419414;28;20042;-85
2022/08/13 18:50:38;;;;;;;7.18;4.35;;;26.30;99.90;;;;;;12409608;28;20047;-84
2022/08/13 18:56:53;;;;;;;5.63;4.10;;;26.20;99.90;;;;;;12431985;28;20481;-87
2022/08/13 19:02:57;;;;;;;6.22;4.72;;;26.10;99.90;;;;;;12429112;28;20441;-84
2022/08/13 19:08:59;;;;;;;5.18;4.35;;;25.90;99.90;;;;;;12432696;28;20054;-84
2022/08/13 19:15:11;;;;;;;5.88;4.10;;;25.90;99.90;;;;;;12419094;28;20056;-84
2022/08/13 19:21:17;;;;;;;7.13;4.60;;;25.80;99.90;;;;;;12411211;28;20049;-84
2022/08/13 19:27:40;;;;;;;9.53;4.40;;;25.70;99.90;;;;;;12430658;28;20054;-85
2022/08/13 19:34:03;;;;;;;4.97;4.23;;;25.60;99.90;;;;;;12419900;28;20050;-84
2022/08/13 19:40:05;;;;;;;;;;;25.50;99.90;;;;;;12427366;28;20413;-84
2022/08/13 19:46:27;;;;;;;6.83;4.40;;;25.30;99.90;;;;;;12417706;28;19929;-84
2022/08/13 19:52:38;;;;;;;7.07;4.70;;;25.20;99.90;;;;;;12412686;28;20073;-86
2022/08/13 19:58:40;;;;;;;;;;;25.10;99.90;;;;;;12414141;28;20539;-84
2022/08/13 20:04:46;;;;;;;6.43;4.40;;;25.00;99.90;;;;;;12415017;28;19947;-86
2022/08/13 20:11:09;;;;;;;6.07;4.15;;;25.00;99.90;;;;;;12438454;28;20056;-84
2022/08/13 20:17:25;;;;;;;12.90;4.47;;;24.90;99.90;;;;;;12429011;28;20054;-84
2022/08/13 20:23:41;;;;;;;5.70;4.53;;;24.80;99.90;;;;;;12423660;28;20058;-85
2022/08/13 20:29:44;;;;;;;9.83;4.90;;;24.70;99.90;;;;;;12421399;28;20096;-84
2022/08/13 20:35:47;;;;;;;7.75;5.50;;;24.60;99.90;;;;;;12421956;28;20482;-84
2022/08/13 20:41:50;;;;;;;9.48;4.32;;;24.70;99.90;;;;;;12408694;28;20061;-84
2022/08/13 20:47:54;;;;;;;7.68;4.18;;;24.50;99.90;;;;;;12409470;28;20111;-84
2022/08/13 20:54:06;;;;;;;7.00;4.18;;;24.50;99.90;;;;;;12433017;28;20037;-84
2022/08/13 21:00:12;;;;;;;9.27;4.50;;;24.40;99.90;;;;;;12409776;28;20058;-84
2022/08/13 21:06:34;;;;;;;12.18;7.25;;;24.20;99.90;;;;;;12417470;28;20054;-84
2022/08/13 21:12:48;;;;;;;10.15;7.38;;;24.30;99.90;;;;;;12411780;28;20072;-84
2022/08/13 21:18:50;;;;;;;16.27;7.97;;;24.10;99.90;;;;;;12408954;28;20177;-84
2022/08/13 21:24:54;;;;;;;12.10;8.02;;;24.10;99.90;;;;;;12424257;28;20395;-84
2022/08/13 21:30:56;;;;;;;26.63;16.48;;;24.20;99.90;;;;;;12412316;28;20522;-84
2022/08/13 21:37:00;;;;;;;11.43;5.63;;;24.10;99.90;;;;;;12408389;28;20104;-83
2022/08/13 21:43:07;;;;;;;12.25;8.35;;;24.00;99.90;;;;;;12422194;28;20078;-84
2022/08/13 21:49:10;;;;;;;14.43;6.25;;;23.90;99.90;;;;;;12422268;28;20054;-83
2022/08/13 21:55:14;;;;;;;9.70;6.18;;;23.90;99.90;;;;;;12405774;28;20498;-83
2022/08/13 22:01:18;;;;;;;7.97;5.70;;;23.80;99.90;;;;;;12440869;28;20038;-83
2022/08/13 22:07:20;;;;;;;6.43;5.05;;;23.80;99.90;;;;;;12438007;28;20136;-83
2022/08/13 22:13:43;;;;;;;5.43;4.32;;;23.70;99.90;;;;;;12419274;28;20406;-83
2022/08/13 22:19:46;;;;;;;7.70;5.00;;;23.60;99.90;;;;;;12420135;28;20666;-84
2022/08/13 22:25:52;;;;;;;11.20;5.85;;;23.70;99.90;;;;;;12421290;28;20489;-83
2022/08/13 22:31:58;;;;;;;9.57;4.65;;;23.60;99.90;;;;;;12421868;28;20053;-83
2022/08/13 22:38:00;;;;;;;8.07;4.35;;;23.40;99.90;;;;;;12428904;28;20121;-83
2022/08/13 22:44:02;;;;;;;7.50;4.20;;;23.40;99.90;;;;;;12420658;28;20050;-83
2022/08/13 22:50:05;;;;;;;6.45;4.35;;;23.40;99.90;;;;;;12420536;28;20053;-83
2022/08/13 22:56:13;;;;;;;6.20;4.25;;;23.50;99.90;;;;;;12420830;28;20180;-83
2022/08/13 23:02:15;;;;;;;5.37;3.63;;;23.40;99.90;;;;;;12421108;28;20054;-83
2022/08/13 23:08:20;;;;;;;9.00;4.30;;;23.60;99.90;;;;;;12419376;28;20590;-84
2022/08/13 23:14:22;;;;;;;5.43;4.05;;;23.50;99.90;;;;;;12440203;28;20053;-83
2022/08/13 23:20:26;;;;;;;7.55;4.30;;;23.50;99.90;;;;;;12415371;28;20054;-83
2022/08/13 23:26:28;;;;;;;6.85;4.30;;;23.40;99.90;;;;;;12429821;28;20053;-83
2022/08/13 23:32:32;;;;;;;;;;;23.00;99.90;;;;;;12410615;28;20136;-83
2022/08/13 23:38:34;;;;;;;6.65;4.07;;;23.00;99.90;;;;;;12416111;28;20381;-83
2022/08/13 23:44:36;;;;;;;7.70;4.05;;;23.00;99.90;;;;;;12422684;28;20053;-83
2022/08/13 23:50:45;;;;;;;7.65;4.15;;;22.90;99.90;;;;;;12418753;28;20065;-83
2022/08/13 23:56:51;;;;;;;9.30;4.47;;;22.90;99.90;;;;;;12417878;28;20430;-83
